createdAt,value
2018-05-23T00:00:23.463Z,3.17
2018-05-23T00:02:51.983Z,3.60
2018-05-23T00:05:20.321Z,3.20
2018-05-23T00:07:48.666Z,3.13
2018-05-23T00:10:17.800Z,3.57
2018-05-23T00:12:46.159Z,3.60
2018-05-23T00:15:14.843Z,3.40
2018-05-23T00:17:43.448Z,3.60
2018-05-23T00:20:11.823Z,3.60
2018-05-23T00:22:40.166Z,3.23
2018-05-23T00:25:09.265Z,3.33
2018-05-23T00:27:38.414Z,3.80
2018-05-23T00:30:06.740Z,3.43
2018-05-23T00:32:35.102Z,3.30
2018-05-23T00:35:03.532Z,3.60
2018-05-23T00:37:32.111Z,3.57
2018-05-23T00:40:00.454Z,3.37
2018-05-23T00:42:29.561Z,4.00
2018-05-23T00:44:58.704Z,3.43
2018-05-23T00:47:27.033Z,3.70
2018-05-23T00:49:55.500Z,3.60
2018-05-23T00:52:23.948Z,3.17
2018-05-23T00:55:04.222Z,2.93
2018-05-23T00:57:32.599Z,3.40
2018-05-23T01:00:00.939Z,3.40
2018-05-23T01:02:29.365Z,3.73
2018-05-23T01:04:57.754Z,3.47
2018-05-23T01:07:26.109Z,3.80
2018-05-23T01:09:54.635Z,3.33
2018-05-23T01:12:23.007Z,3.40
2018-05-23T01:14:51.498Z,3.13
2018-05-23T01:17:20.606Z,3.23
2018-05-23T01:19:48.960Z,3.13
2018-05-23T01:22:17.312Z,3.63
2018-05-23T01:24:45.664Z,3.70
2018-05-23T01:27:14.057Z,3.70
2018-05-23T01:29:42.514Z,3.37
2018-05-23T01:32:10.890Z,3.40
2018-05-23T01:34:39.332Z,3.30
2018-05-23T01:37:07.681Z,3.53
2018-05-23T01:39:36.028Z,3.27
2018-05-23T01:42:04.432Z,3.60
2018-05-23T01:44:32.767Z,3.30
2018-05-23T01:47:01.893Z,3.53
2018-05-23T01:49:30.240Z,3.27
2018-05-23T01:51:59.375Z,2.90
2018-05-23T01:54:27.718Z,3.17
2018-05-23T01:56:56.844Z,3.70
2018-05-23T01:59:25.186Z,3.27
2018-05-23T02:01:54.299Z,3.43
2018-05-23T02:04:22.694Z,2.80
2018-05-23T02:06:51.023Z,3.10
2018-05-23T02:09:19.451Z,3.50
2018-05-23T02:11:47.974Z,3.07
2018-05-23T02:14:16.390Z,2.73
2018-05-23T02:16:44.800Z,3.43
2018-05-23T02:19:13.281Z,3.50
2018-05-23T02:21:41.614Z,3.53
2018-05-23T02:24:09.979Z,3.07
2018-05-23T02:26:38.487Z,3.40
2018-05-23T02:29:06.892Z,3.23
2018-05-23T02:31:35.244Z,3.57
2018-05-23T02:34:04.341Z,3.13
2018-05-23T02:36:33.468Z,3.20
2018-05-23T02:39:01.847Z,3.03
2018-05-23T02:41:30.216Z,2.80
2018-05-23T02:43:58.566Z,2.93
2018-05-23T02:46:27.666Z,3.33
2018-05-23T02:48:56.252Z,3.10
2018-05-23T02:51:25.386Z,2.90
2018-05-23T02:53:53.802Z,3.00
2018-05-23T02:56:22.206Z,3.07
2018-05-23T02:58:51.337Z,2.97
2018-05-23T03:01:19.679Z,2.93
2018-05-23T03:03:48.956Z,3.10
2018-05-23T03:06:17.289Z,3.30
2018-05-23T03:08:45.650Z,2.47
2018-05-23T03:11:13.982Z,3.30
2018-05-23T03:13:42.358Z,3.00
2018-05-23T03:16:10.705Z,2.83
2018-05-23T03:18:39.100Z,3.00
2018-05-23T03:21:07.491Z,3.30
2018-05-23T03:23:35.806Z,2.77
2018-05-23T03:26:04.972Z,2.80
2018-05-23T03:28:33.397Z,3.00
2018-05-23T03:31:02.612Z,3.17
2018-05-23T03:33:31.705Z,3.03
2018-05-23T03:36:00.165Z,3.17
2018-05-23T03:38:28.590Z,2.83
2018-05-23T03:40:56.983Z,2.90
2018-05-23T03:43:25.570Z,3.00
2018-05-23T03:45:53.930Z,2.90
2018-05-23T03:48:22.323Z,3.47
2018-05-23T03:50:50.665Z,2.80
2018-05-23T03:53:19.777Z,2.87
2018-05-23T03:55:48.109Z,2.97
2018-05-23T03:58:16.454Z,3.27
2018-05-23T04:00:56.657Z,3.30
2018-05-23T04:03:36.958Z,3.00
2018-05-23T04:06:17.257Z,3.20
2018-05-23T04:08:45.609Z,3.40
2018-05-23T04:11:14.490Z,3.33
2018-05-23T04:13:42.841Z,3.17
2018-05-23T04:16:11.186Z,3.33
2018-05-23T04:18:39.560Z,3.20
2018-05-23T04:21:08.554Z,3.03
2018-05-23T04:23:36.911Z,3.43
2018-05-23T04:26:05.248Z,3.40
2018-05-23T04:28:34.372Z,2.90
2018-05-23T04:31:02.701Z,3.10
2018-05-23T04:33:31.118Z,3.70
2018-05-23T04:35:59.467Z,3.33
2018-05-23T04:38:27.821Z,3.00
2018-05-23T04:40:56.168Z,3.00
2018-05-23T04:43:24.584Z,3.00
2018-05-23T04:45:52.915Z,3.30
2018-05-23T04:48:21.254Z,3.87
2018-05-23T04:50:49.613Z,5.13
2018-05-23T04:53:17.942Z,3.80
2018-05-23T04:55:46.329Z,2.93
2018-05-23T04:58:14.665Z,8.23
2018-05-23T05:00:43.037Z,6.67
2018-05-23T05:03:11.501Z,4.13
2018-05-23T05:05:39.880Z,3.07
2018-05-23T05:08:08.205Z,3.00
2018-05-23T05:10:37.350Z,3.40
2018-05-23T05:13:05.671Z,3.40
2018-05-23T05:15:34.797Z,3.00
2018-05-23T05:18:03.126Z,3.13
2018-05-23T05:20:31.570Z,3.00
2018-05-23T05:22:59.943Z,3.80
2018-05-23T05:25:28.295Z,3.60
2018-05-23T05:27:56.852Z,6.07
2018-05-23T05:30:25.188Z,14.33
2018-05-23T05:32:53.542Z,4.10
2018-05-23T05:35:22.639Z,3.83
2018-05-23T05:37:50.996Z,3.53
2018-05-23T05:40:19.338Z,4.00
2018-05-23T05:42:47.683Z,4.93
2018-05-23T05:45:16.017Z,4.13
2018-05-23T05:47:44.351Z,4.37
2018-05-23T05:50:12.728Z,5.80
2018-05-23T05:52:41.059Z,3.90
2018-05-23T05:55:09.414Z,3.40
2018-05-23T05:57:37.755Z,3.33
2018-05-23T06:00:06.117Z,3.37
2018-05-23T06:02:34.474Z,3.87
2018-05-23T06:05:02.903Z,6.57
2018-05-23T06:07:31.239Z,4.43
2018-05-23T06:09:59.758Z,4.07
2018-05-23T06:12:28.036Z,3.73
2018-05-23T06:14:56.398Z,3.53
2018-05-23T06:17:25.710Z,3.60
2018-05-23T06:19:54.811Z,3.10
2018-05-23T06:22:23.260Z,3.90
2018-05-23T06:24:51.643Z,4.40
2018-05-23T06:27:20.783Z,3.90
2018-05-23T06:29:49.163Z,3.70
2018-05-23T06:32:17.544Z,3.60
2018-05-23T06:34:45.931Z,3.70
2018-05-23T06:37:14.270Z,3.50
2018-05-23T06:39:43.371Z,3.53
2018-05-23T06:42:11.726Z,3.57
2018-05-23T06:44:40.074Z,3.80
2018-05-23T06:47:08.639Z,3.60
2018-05-23T06:49:36.990Z,3.70
2018-05-23T06:52:05.347Z,3.53
2018-05-23T06:54:33.882Z,3.07
2018-05-23T06:57:02.218Z,3.80
2018-05-23T06:59:31.575Z,3.73
2018-05-23T07:01:59.942Z,3.53
2018-05-23T07:04:28.292Z,3.27
2018-05-23T07:06:56.631Z,3.57
2018-05-23T07:09:24.980Z,3.10
2018-05-23T07:11:53.343Z,3.40
2018-05-23T07:14:21.695Z,9.37
2018-05-23T07:16:50.156Z,6.00
2018-05-23T07:19:18.682Z,3.10
2018-05-23T07:21:47.073Z,3.55
2018-05-23T07:24:15.439Z,3.22
2018-05-23T07:26:43.826Z,2.92
2018-05-23T07:29:12.175Z,3.10
2018-05-23T07:31:41.305Z,3.20
2018-05-23T07:34:09.687Z,3.30
2018-05-23T07:36:38.033Z,4.20
2018-05-23T07:39:07.140Z,4.60
2018-05-23T07:41:35.507Z,3.70
2018-05-23T07:44:04.649Z,3.10
2018-05-23T07:46:33.018Z,3.28
2018-05-23T07:49:01.375Z,3.30
2018-05-23T07:51:29.800Z,3.77
2018-05-23T07:53:58.145Z,4.78
2018-05-23T07:56:26.488Z,4.10
2018-05-23T07:58:54.838Z,3.42
2018-05-23T08:01:23.169Z,2.60
2018-05-23T08:03:51.572Z,3.03
2018-05-23T08:06:19.911Z,3.17
2018-05-23T08:08:49.027Z,2.80
2018-05-23T08:11:17.374Z,2.75
2018-05-23T08:13:45.720Z,2.95
2018-05-23T08:16:14.082Z,3.08
2018-05-23T08:18:42.462Z,2.75
2018-05-23T08:21:10.790Z,3.28
2018-05-23T08:23:39.148Z,3.20
2018-05-23T08:26:07.510Z,3.17
2018-05-23T08:28:35.870Z,3.37
2018-05-23T08:31:04.263Z,2.87
2018-05-23T08:33:32.705Z,3.72
2018-05-23T08:36:00.978Z,3.28
2018-05-23T08:38:29.310Z,3.08
2018-05-23T08:40:57.670Z,3.20
2018-05-23T08:43:26.018Z,3.10
2018-05-23T08:45:55.147Z,2.97
2018-05-23T08:48:24.331Z,2.97
2018-05-23T08:50:52.710Z,3.22
2018-05-23T08:53:21.791Z,3.10
2018-05-23T08:55:50.159Z,3.37
2018-05-23T08:58:18.494Z,3.20
2018-05-23T09:00:46.837Z,3.00
2018-05-23T09:03:15.942Z,3.22
2018-05-23T09:05:44.282Z,3.75
2018-05-23T09:08:12.633Z,3.10
2018-05-23T09:10:41.047Z,2.87
2018-05-23T09:13:10.161Z,3.25
2018-05-23T09:15:38.643Z,7.68
2018-05-23T09:18:07.099Z,3.30
2018-05-23T09:20:35.438Z,3.05
2018-05-23T09:23:03.847Z,3.10
2018-05-23T09:25:32.247Z,3.25
2018-05-23T09:28:00.555Z,3.12
2018-05-23T09:30:28.915Z,3.70
2018-05-23T09:32:58.023Z,3.40
2018-05-23T09:35:26.409Z,3.45
2018-05-23T09:37:54.807Z,3.00
2018-05-23T09:40:23.331Z,3.30
2018-05-23T09:42:51.743Z,3.22
2018-05-23T09:45:20.137Z,3.00
2018-05-23T09:47:48.486Z,3.83
2018-05-23T09:50:17.603Z,3.28
2018-05-23T09:52:45.942Z,3.33
2018-05-23T09:55:14.370Z,3.22
2018-05-23T09:57:42.751Z,2.62
2018-05-23T10:00:11.107Z,2.92
2018-05-23T10:02:40.210Z,4.43
2018-05-23T10:05:08.663Z,3.42
2018-05-23T10:07:37.068Z,2.90
2018-05-23T10:10:06.234Z,3.05
2018-05-23T10:12:34.582Z,2.83
2018-05-23T10:15:02.941Z,2.72
2018-05-23T10:17:31.976Z,2.90
2018-05-23T10:20:00.500Z,2.60
2018-05-23T10:22:29.040Z,2.83
2018-05-23T10:24:57.400Z,2.67
2018-05-23T10:27:25.730Z,2.72
2018-05-23T10:29:54.853Z,2.92
2018-05-23T10:32:23.456Z,2.37
2018-05-23T10:34:51.778Z,2.30
2018-05-23T10:37:20.122Z,2.62
2018-05-23T10:39:48.580Z,2.92
2018-05-23T10:42:16.956Z,2.65
2018-05-23T10:44:45.312Z,2.60
2018-05-23T10:47:14.634Z,2.70
2018-05-23T10:49:43.120Z,2.65
2018-05-23T10:52:11.643Z,3.00
2018-05-23T10:54:39.853Z,2.78
2018-05-23T10:57:09.077Z,2.80
2018-05-23T10:59:37.306Z,3.12
2018-05-23T11:02:05.687Z,2.78
2018-05-23T11:04:34.029Z,2.75
2018-05-23T11:07:02.395Z,2.53
2018-05-23T11:09:30.745Z,2.55
2018-05-23T11:11:59.858Z,3.62
2018-05-23T11:14:28.252Z,2.50
2018-05-23T11:16:56.731Z,2.33
2018-05-23T11:19:25.077Z,2.60
2018-05-23T11:21:54.206Z,2.50
2018-05-23T11:24:22.772Z,2.67
2018-05-23T11:26:51.056Z,2.60
2018-05-23T11:29:19.427Z,2.47
2018-05-23T11:31:47.753Z,2.55
2018-05-23T11:34:16.202Z,2.30
2018-05-23T11:36:44.597Z,2.22
2018-05-23T11:39:12.925Z,2.80
2018-05-23T11:41:42.082Z,2.20
2018-05-23T11:44:10.486Z,2.40
2018-05-23T11:46:38.890Z,7.28
2018-05-23T11:49:07.214Z,2.60
2018-05-23T11:51:35.578Z,2.17
2018-05-23T11:54:03.965Z,2.42
2018-05-23T11:56:32.317Z,2.40
2018-05-23T11:59:00.686Z,2.60
2018-05-23T12:01:29.019Z,2.42
2018-05-23T12:03:57.365Z,2.40
2018-05-23T12:06:25.739Z,2.20
2018-05-23T12:08:54.236Z,2.53
2018-05-23T12:11:22.749Z,2.45
2018-05-23T12:13:51.116Z,2.65
2018-05-23T12:16:19.502Z,2.37
2018-05-23T12:18:48.057Z,2.30
2018-05-23T12:21:16.437Z,2.55
2018-05-23T12:23:44.772Z,2.90
2018-05-23T12:26:13.911Z,2.60
2018-05-23T12:28:42.291Z,3.10
2018-05-23T12:31:10.668Z,2.42
2018-05-23T12:33:39.164Z,2.62
2018-05-23T12:36:07.507Z,2.35
2018-05-23T12:38:35.855Z,2.53
2018-05-23T12:41:04.298Z,2.70
2018-05-23T12:43:32.692Z,3.20
2018-05-23T12:46:01.751Z,2.40
2018-05-23T12:48:30.139Z,2.97
2018-05-23T12:50:58.508Z,2.70
2018-05-23T12:53:26.922Z,3.03
2018-05-23T12:55:55.254Z,3.22
2018-05-23T12:58:23.618Z,2.90
2018-05-23T13:00:52.748Z,2.70
2018-05-23T13:03:21.151Z,2.62
2018-05-23T13:05:49.479Z,2.85
2018-05-23T13:08:17.863Z,3.20
2018-05-23T13:10:46.187Z,2.70
2018-05-23T13:13:14.554Z,2.92
2018-05-23T13:15:42.891Z,6.22
2018-05-23T13:18:12.004Z,2.80
2018-05-23T13:20:41.121Z,2.28
2018-05-23T13:23:09.474Z,2.58
2018-05-23T13:25:38.618Z,3.00
2018-05-23T13:28:06.971Z,2.60
2018-05-23T13:30:35.344Z,2.60
2018-05-23T13:33:03.678Z,2.80
2018-05-23T13:35:32.109Z,2.60
2018-05-23T13:38:01.251Z,2.65
2018-05-23T13:40:29.689Z,2.47
2018-05-23T13:42:58.024Z,2.70
2018-05-23T13:45:26.693Z,2.53
2018-05-23T13:47:55.054Z,2.47
2018-05-23T13:50:23.574Z,2.60
2018-05-23T13:52:52.036Z,2.80
2018-05-23T13:55:20.370Z,2.37
2018-05-23T13:57:48.717Z,2.53
2018-05-23T14:00:17.836Z,2.08
2018-05-23T14:02:46.204Z,2.30
2018-05-23T14:05:15.301Z,2.60
2018-05-23T14:07:44.419Z,2.40
2018-05-23T14:10:12.891Z,2.37
2018-05-23T14:12:41.357Z,2.40
2018-05-23T14:15:10.651Z,2.60
2018-05-23T14:17:39.806Z,2.62
2018-05-23T14:20:08.161Z,2.35
2018-05-23T14:22:36.754Z,2.47
2018-05-23T14:25:05.075Z,2.37
2018-05-23T14:27:33.526Z,2.40
2018-05-23T14:30:02.626Z,2.60
2018-05-23T14:32:30.983Z,2.60
2018-05-23T14:34:59.352Z,2.28
2018-05-23T14:37:27.686Z,2.20
2018-05-23T14:39:56.121Z,2.30
2018-05-23T14:42:24.568Z,2.50
2018-05-23T14:44:52.914Z,2.17
2018-05-23T14:47:21.369Z,2.17
2018-05-23T14:49:49.818Z,2.20
2018-05-23T14:52:18.938Z,2.47
2018-05-23T14:54:47.307Z,2.58
2018-05-23T14:57:16.680Z,2.33
2018-05-23T14:59:45.171Z,2.60
2018-05-23T15:02:13.492Z,2.42
2018-05-23T15:04:41.824Z,2.22
2018-05-23T15:07:11.875Z,2.20
2018-05-23T15:09:40.203Z,2.22
2018-05-23T15:12:08.643Z,2.35
2018-05-23T15:14:37.027Z,2.70
2018-05-23T15:17:05.412Z,2.50
2018-05-23T15:19:33.790Z,2.20
2018-05-23T15:22:02.309Z,2.30
2018-05-23T15:24:30.647Z,2.17
2018-05-23T15:26:59.130Z,2.30
2018-05-23T15:29:27.508Z,2.53
2018-05-23T15:31:55.870Z,2.30
2018-05-23T15:34:24.203Z,2.22
2018-05-23T15:36:52.557Z,2.22
2018-05-23T15:39:21.010Z,1.98
2018-05-23T15:41:49.542Z,2.10
2018-05-23T15:44:17.791Z,2.00
2018-05-23T15:46:46.151Z,2.03
2018-05-23T15:49:14.537Z,1.80
2018-05-23T15:51:42.859Z,2.00
2018-05-23T15:54:11.354Z,6.30
2018-05-23T15:56:39.724Z,2.60
2018-05-23T15:59:08.939Z,2.12
2018-05-23T16:01:38.069Z,2.20
2018-05-23T16:04:06.658Z,2.22
2018-05-23T16:06:35.030Z,2.10
2018-05-23T16:09:03.391Z,1.75
2018-05-23T16:11:31.742Z,2.22
2018-05-23T16:14:00.167Z,2.00
2018-05-23T16:16:28.564Z,1.90
2018-05-23T16:18:56.970Z,1.67
2018-05-23T16:21:25.411Z,1.92
2018-05-23T16:23:53.790Z,2.37
2018-05-23T16:26:22.169Z,2.00
2018-05-23T16:28:50.611Z,1.98
2018-05-23T16:31:19.763Z,1.70
2018-05-23T16:33:48.094Z,1.90
2018-05-23T16:36:17.323Z,2.10
2018-05-23T16:38:45.665Z,2.00
2018-05-23T16:41:14.893Z,3.08
2018-05-23T16:43:43.150Z,1.90
2018-05-23T16:46:12.258Z,2.08
2018-05-23T16:48:40.768Z,1.95
2018-05-23T16:51:09.138Z,1.87
2018-05-23T16:53:37.486Z,1.95
2018-05-23T16:56:06.771Z,1.90
2018-05-23T16:58:35.194Z,1.70
2018-05-23T17:01:03.575Z,1.92
2018-05-23T17:03:31.923Z,1.70
2018-05-23T17:06:00.337Z,2.03
2018-05-23T17:08:28.817Z,1.70
2018-05-23T17:10:57.197Z,2.10
2018-05-23T17:13:25.589Z,1.70
2018-05-23T17:15:54.104Z,1.83
2018-05-23T17:18:23.408Z,1.80
2018-05-23T17:20:51.804Z,1.83
2018-05-23T17:23:20.904Z,2.03
2018-05-23T17:25:50.049Z,1.98
2018-05-23T17:28:18.428Z,1.70
2018-05-23T17:30:46.798Z,1.90
2018-05-23T17:33:16.071Z,1.90
2018-05-23T17:35:45.473Z,7.00
2018-05-23T17:38:14.574Z,2.83
2018-05-23T17:40:42.974Z,1.87
2018-05-23T17:43:11.365Z,1.70
2018-05-23T17:45:40.350Z,1.60
2018-05-23T17:48:08.710Z,1.70
2018-05-23T17:50:37.040Z,2.10
2018-05-23T17:53:05.469Z,2.00
2018-05-23T17:55:33.866Z,2.15
2018-05-23T17:58:02.349Z,1.80
2018-05-23T18:00:30.702Z,1.65
2018-05-23T18:02:59.105Z,1.60
2018-05-23T18:05:27.458Z,1.92
2018-05-23T18:07:56.565Z,1.70
2018-05-23T18:10:24.968Z,1.62
2018-05-23T18:12:53.928Z,1.80
2018-05-23T18:15:23.162Z,2.00
2018-05-23T18:17:51.581Z,1.52
2018-05-23T18:20:19.914Z,2.62
2018-05-23T18:22:48.298Z,3.70
2018-05-23T18:25:16.668Z,1.90
2018-05-23T18:27:45.014Z,1.80
2018-05-23T18:30:14.249Z,1.62
2018-05-23T18:32:42.721Z,1.58
2018-05-23T18:35:11.331Z,1.70
2018-05-23T18:37:39.679Z,1.62
2018-05-23T18:40:08.065Z,1.70
2018-05-23T18:42:36.407Z,1.70
2018-05-23T18:45:05.618Z,1.73
2018-05-23T18:47:34.056Z,2.20
2018-05-23T18:50:02.442Z,2.87
2018-05-23T18:52:30.797Z,1.87
2018-05-23T18:54:59.145Z,1.90
2018-05-23T18:57:27.504Z,2.12
2018-05-23T18:59:56.687Z,3.10
2018-05-23T19:02:25.129Z,2.55
2018-05-23T19:04:53.521Z,1.80
2018-05-23T19:07:22.587Z,1.80
2018-05-23T19:09:51.061Z,1.70
2018-05-23T19:12:19.574Z,1.70
2018-05-23T19:14:48.159Z,1.60
2018-05-23T19:17:16.522Z,1.80
2018-05-23T19:19:44.895Z,1.62
2018-05-23T19:22:13.238Z,2.33
2018-05-23T19:24:42.044Z,1.90
2018-05-23T19:27:10.463Z,1.90
2018-05-23T19:29:38.821Z,1.90
2018-05-23T19:32:07.156Z,1.67
2018-05-23T19:34:35.806Z,1.50
2018-05-23T19:37:04.151Z,1.90
2018-05-23T19:39:32.579Z,1.92
2018-05-23T19:42:00.915Z,2.15
2018-05-23T19:44:29.279Z,1.80
2018-05-23T19:46:58.406Z,2.00
2018-05-23T19:49:27.560Z,2.10
2018-05-23T19:51:55.967Z,1.85
2018-05-23T19:54:24.385Z,1.95
2018-05-23T19:56:52.771Z,1.67
2018-05-23T19:59:21.161Z,1.90
2018-05-23T20:01:49.556Z,2.12
2018-05-23T20:04:17.902Z,1.80
2018-05-23T20:06:46.256Z,1.67
2018-05-23T20:09:14.596Z,1.67
2018-05-23T20:11:42.955Z,1.87
2018-05-23T20:14:11.386Z,1.70
2018-05-23T20:16:39.746Z,1.43
2018-05-23T20:19:08.093Z,1.50
2018-05-23T20:21:36.434Z,1.58
2018-05-23T20:24:04.793Z,1.50
2018-05-23T20:26:33.902Z,1.77
2018-05-23T20:29:02.313Z,1.52
2018-05-23T20:31:30.642Z,1.50
2018-05-23T20:33:59.765Z,1.75
2018-05-23T20:36:28.094Z,1.57
2018-05-23T20:38:56.457Z,1.42
2018-05-23T20:41:25.075Z,1.40
2018-05-23T20:43:53.403Z,1.50
2018-05-23T20:46:21.763Z,1.87
2018-05-23T20:48:50.134Z,1.67
2018-05-23T20:51:18.527Z,1.50
2018-05-23T20:53:46.998Z,1.30
2018-05-23T20:56:15.499Z,1.50
2018-05-23T20:58:44.032Z,1.60
2018-05-23T21:01:12.354Z,1.67
2018-05-23T21:03:40.723Z,1.70
2018-05-23T21:06:09.106Z,1.60
2018-05-23T21:08:37.494Z,1.87
2018-05-23T21:11:05.879Z,1.50
2018-05-23T21:13:34.241Z,1.80
2018-05-23T21:16:02.613Z,1.40
2018-05-23T21:18:30.998Z,1.40
2018-05-23T21:20:59.384Z,1.47
2018-05-23T21:23:27.771Z,3.23
2018-05-23T21:25:56.152Z,1.90
2018-05-23T21:28:24.510Z,1.57
2018-05-23T21:30:52.896Z,1.53
2018-05-23T21:33:21.267Z,1.83
2018-05-23T21:35:49.621Z,1.63
2018-05-23T21:38:18.047Z,1.70
2018-05-23T21:40:46.383Z,1.67
2018-05-23T21:43:15.503Z,1.60
2018-05-23T21:45:43.839Z,1.30
2018-05-23T21:48:12.200Z,1.80
2018-05-23T21:50:40.603Z,2.13
2018-05-23T21:53:08.951Z,1.47
2018-05-23T21:55:37.299Z,1.80
2018-05-23T21:58:05.805Z,1.60
2018-05-23T22:00:34.155Z,1.40
2018-05-23T22:03:02.509Z,1.40
2018-05-23T22:05:30.860Z,1.67
2018-05-23T22:07:59.328Z,1.60
2018-05-23T22:10:27.688Z,1.60
2018-05-23T22:12:56.076Z,1.60
2018-05-23T22:15:24.434Z,1.70
2018-05-23T22:17:52.778Z,1.70
2018-05-23T22:20:21.132Z,1.47
2018-05-23T22:22:49.485Z,1.50
2018-05-23T22:25:17.837Z,1.40
2018-05-23T22:27:46.962Z,1.50
2018-05-23T22:30:15.310Z,1.50
2018-05-23T22:32:43.707Z,1.50
2018-05-23T22:35:12.805Z,2.10
2018-05-23T22:37:41.162Z,2.97
2018-05-23T22:40:10.416Z,1.50
2018-05-23T22:42:38.806Z,1.60
2018-05-23T22:45:07.156Z,1.40
2018-05-23T22:47:35.609Z,1.60
2018-05-23T22:50:04.764Z,1.60
2018-05-23T22:52:33.392Z,1.77
2018-05-23T22:55:01.752Z,1.67
2018-05-23T22:57:30.136Z,1.70
2018-05-23T22:59:58.598Z,1.60
2018-05-23T23:02:26.935Z,1.53
2018-05-23T23:04:55.361Z,1.67
2018-05-23T23:07:23.750Z,2.03
2018-05-23T23:09:52.304Z,1.50
2018-05-23T23:12:20.677Z,1.50
2018-05-23T23:14:49.097Z,1.60
2018-05-23T23:17:17.457Z,1.60
2018-05-23T23:19:45.888Z,1.47
2018-05-23T23:22:26.037Z,1.47
2018-05-23T23:24:54.394Z,1.70
2018-05-23T23:27:23.841Z,1.50
2018-05-23T23:29:52.325Z,1.70
2018-05-23T23:32:20.832Z,1.60
2018-05-23T23:34:49.165Z,1.60
2018-05-23T23:37:17.508Z,1.70
2018-05-23T23:39:45.906Z,1.60
2018-05-23T23:42:14.309Z,1.67
2018-05-23T23:44:43.583Z,1.60
2018-05-23T23:47:11.884Z,1.37
2018-05-23T23:49:40.256Z,1.60
2018-05-23T23:52:08.719Z,1.97
2018-05-23T23:54:37.143Z,1.80
2018-05-23T23:57:05.518Z,2.00
2018-05-23T23:59:33.902Z,1.63
